sensor_id;sensor_type;location;lat;lon;timestamp;P1;durP1;ratioP1;P2;durP2;ratioP2
74614;SDS011;63121;51.458;-0.110;2022-11-15T00:01:42;11.52;;;1.45;;
74614;SDS011;63121;51.458;-0.110;2022-11-15T00:04:07;7.40;;;1.30;;
74614;SDS011;63121;51.458;-0.110;2022-11-15T00:06:35;6.93;;;1.10;;
74614;SDS011;63121;51.458;-0.110;2022-11-15T00:09:00;6.30;;;1.02;;
74614;SDS011;63121;51.458;-0.110;2022-11-15T00:11:26;4.80;;;1.25;;
74614;SDS011;63121;51.458;-0.110;2022-11-15T00:13:55;5.20;;;0.95;;
74614;SDS011;63121;51.458;-0.110;2022-11-15T00:16:21;8.20;;;1.33;;
74614;SDS011;63121;51.458;-0.110;2022-11-15T00:18:48;6.78;;;1.13;;
74614;SDS011;63121;51.458;-0.110;2022-11-15T00:21:13;7.20;;;1.25;;
74614;SDS011;63121;51.458;-0.110;2022-11-15T00:23:39;6.35;;;1.60;;
74614;SDS011;63121;51.458;-0.110;2022-11-15T00:26:05;7.22;;;1.45;;
74614;SDS011;63121;51.458;-0.110;2022-11-15T00:28:31;7.82;;;1.60;;
74614;SDS011;63121;51.458;-0.110;2022-11-15T00:31:04;7.50;;;1.23;;
74614;SDS011;63121;51.458;-0.110;2022-11-15T00:33:31;7.55;;;1.50;;
74614;SDS011;63121;51.458;-0.110;2022-11-15T00:36:04;8.60;;;1.75;;
74614;SDS011;63121;51.458;-0.110;2022-11-15T00:38:34;5.38;;;1.17;;
74614;SDS011;63121;51.458;-0.110;2022-11-15T00:41:01;3.75;;;0.95;;
74614;SDS011;63121;51.458;-0.110;2022-11-15T00:43:28;6.78;;;1.30;;
74614;SDS011;63121;51.458;-0.110;2022-11-15T00:45:53;6.50;;;1.48;;
74614;SDS011;63121;51.458;-0.110;2022-11-15T00:48:19;4.18;;;1.05;;
74614;SDS011;63121;51.458;-0.110;2022-11-15T00:50:44;5.30;;;1.15;;
74614;SDS011;63121;51.458;-0.110;2022-11-15T00:53:10;8.15;;;1.52;;
74614;SDS011;63121;51.458;-0.110;2022-11-15T00:55:35;7.10;;;1.25;;
74614;SDS011;63121;51.458;-0.110;2022-11-15T00:58:01;5.18;;;1.25;;
74614;SDS011;63121;51.458;-0.110;2022-11-15T01:00:26;5.10;;;0.88;;
74614;SDS011;63121;51.458;-0.110;2022-11-15T01:02:51;4.78;;;1.00;;
74614;SDS011;63121;51.458;-0.110;2022-11-15T01:05:17;7.85;;;1.20;;
74614;SDS011;63121;51.458;-0.110;2022-11-15T01:07:42;7.55;;;1.08;;
74614;SDS011;63121;51.458;-0.110;2022-11-15T01:10:08;7.80;;;0.98;;
74614;SDS011;63121;51.458;-0.110;2022-11-15T01:12:34;5.70;;;1.00;;
74614;SDS011;63121;51.458;-0.110;2022-11-15T01:14:59;7.82;;;1.27;;
74614;SDS011;63121;51.458;-0.110;2022-11-15T01:17:24;6.35;;;1.05;;
74614;SDS011;63121;51.458;-0.110;2022-11-15T01:19:50;4.75;;;1.00;;
74614;SDS011;63121;51.458;-0.110;2022-11-15T01:22:16;8.00;;;1.50;;
74614;SDS011;63121;51.458;-0.110;2022-11-15T01:24:41;3.72;;;0.98;;
74614;SDS011;63121;51.458;-0.110;2022-11-15T01:27:09;4.20;;;1.20;;
74614;SDS011;63121;51.458;-0.110;2022-11-15T01:29:35;8.27;;;1.10;;
74614;SDS011;63121;51.458;-0.110;2022-11-15T01:32:00;6.38;;;1.20;;
74614;SDS011;63121;51.458;-0.110;2022-11-15T01:34:26;4.97;;;1.15;;
74614;SDS011;63121;51.458;-0.110;2022-11-15T01:36:51;7.20;;;1.45;;
74614;SDS011;63121;51.458;-0.110;2022-11-15T01:39:17;6.03;;;1.10;;
74614;SDS011;63121;51.458;-0.110;2022-11-15T01:41:42;3.70;;;0.80;;
74614;SDS011;63121;51.458;-0.110;2022-11-15T01:46:55;6.50;;;1.27;;
74614;SDS011;63121;51.458;-0.110;2022-11-15T01:49:21;8.27;;;1.58;;
74614;SDS011;63121;51.458;-0.110;2022-11-15T01:51:48;5.07;;;1.10;;
74614;SDS011;63121;51.458;-0.110;2022-11-15T01:54:15;9.25;;;1.83;;
74614;SDS011;63121;51.458;-0.110;2022-11-15T01:56:49;4.53;;;0.90;;
74614;SDS011;63121;51.458;-0.110;2022-11-15T01:59:18;7.45;;;0.90;;
74614;SDS011;63121;51.458;-0.110;2022-11-15T02:01:44;5.68;;;1.17;;
74614;SDS011;63121;51.458;-0.110;2022-11-15T02:04:11;5.68;;;1.20;;
74614;SDS011;63121;51.458;-0.110;2022-11-15T02:06:41;10.95;;;1.35;;
74614;SDS011;63121;51.458;-0.110;2022-11-15T02:09:08;6.72;;;1.40;;
74614;SDS011;63121;51.458;-0.110;2022-11-15T02:11:34;3.72;;;0.90;;
74614;SDS011;63121;51.458;-0.110;2022-11-15T02:14:00;7.50;;;1.17;;
74614;SDS011;63121;51.458;-0.110;2022-11-15T02:16:37;4.00;;;0.90;;
74614;SDS011;63121;51.458;-0.110;2022-11-15T02:19:28;6.10;;;0.93;;
74614;SDS011;63121;51.458;-0.110;2022-11-15T02:27:59;5.43;;;1.00;;
74614;SDS011;63121;51.458;-0.110;2022-11-15T02:38:59;9.50;;;1.50;;
74614;SDS011;63121;51.458;-0.110;2022-11-15T02:41:34;5.65;;;0.85;;
74614;SDS011;63121;51.458;-0.110;2022-11-15T02:44:24;9.27;;;1.48;;
74614;SDS011;63121;51.458;-0.110;2022-11-15T02:47:09;7.68;;;1.08;;
74614;SDS011;63121;51.458;-0.110;2022-11-15T02:49:43;6.95;;;1.25;;
74614;SDS011;63121;51.458;-0.110;2022-11-15T02:52:15;7.65;;;1.00;;
74614;SDS011;63121;51.458;-0.110;2022-11-15T02:54:42;7.20;;;1.05;;
74614;SDS011;63121;51.458;-0.110;2022-11-15T02:57:11;5.47;;;0.90;;
74614;SDS011;63121;51.458;-0.110;2022-11-15T03:07:32;9.20;;;0.90;;
74614;SDS011;63121;51.458;-0.110;2022-11-15T03:10:08;6.05;;;0.95;;
74614;SDS011;63121;51.458;-0.110;2022-11-15T03:15:21;10.80;;;1.10;;
74614;SDS011;63121;51.458;-0.110;2022-11-15T03:17:55;4.20;;;0.90;;
74614;SDS011;63121;51.458;-0.110;2022-11-15T03:20:26;8.13;;;1.30;;
74614;SDS011;63121;51.458;-0.110;2022-11-15T03:22:53;8.50;;;1.02;;
74614;SDS011;63121;51.458;-0.110;2022-11-15T03:25:24;5.00;;;1.13;;
74614;SDS011;63121;51.458;-0.110;2022-11-15T03:27:52;6.82;;;1.00;;
74614;SDS011;63121;51.458;-0.110;2022-11-15T03:30:22;6.45;;;1.00;;
74614;SDS011;63121;51.458;-0.110;2022-11-15T03:32:51;4.32;;;0.82;;
74614;SDS011;63121;51.458;-0.110;2022-11-15T03:35:23;3.42;;;0.77;;
74614;SDS011;63121;51.458;-0.110;2022-11-15T03:37:59;8.55;;;1.20;;
74614;SDS011;63121;51.458;-0.110;2022-11-15T03:40:35;6.13;;;1.23;;
74614;SDS011;63121;51.458;-0.110;2022-11-15T03:46:13;5.05;;;0.77;;
74614;SDS011;63121;51.458;-0.110;2022-11-15T03:48:42;5.82;;;1.05;;
74614;SDS011;63121;51.458;-0.110;2022-11-15T03:51:12;6.78;;;1.00;;
74614;SDS011;63121;51.458;-0.110;2022-11-15T03:53:38;5.65;;;0.98;;
74614;SDS011;63121;51.458;-0.110;2022-11-15T03:56:05;8.45;;;1.15;;
74614;SDS011;63121;51.458;-0.110;2022-11-15T03:58:31;7.65;;;1.30;;
74614;SDS011;63121;51.458;-0.110;2022-11-15T04:00:56;10.20;;;1.13;;
74614;SDS011;63121;51.458;-0.110;2022-11-15T04:03:21;7.22;;;1.05;;
74614;SDS011;63121;51.458;-0.110;2022-11-15T04:05:47;5.20;;;1.08;;
74614;SDS011;63121;51.458;-0.110;2022-11-15T04:08:12;4.85;;;1.63;;
74614;SDS011;63121;51.458;-0.110;2022-11-15T04:10:38;7.18;;;1.05;;
74614;SDS011;63121;51.458;-0.110;2022-11-15T04:13:04;5.22;;;1.30;;
74614;SDS011;63121;51.458;-0.110;2022-11-15T04:15:29;5.47;;;1.00;;
74614;SDS011;63121;51.458;-0.110;2022-11-15T04:17:56;8.57;;;1.10;;
74614;SDS011;63121;51.458;-0.110;2022-11-15T04:23:11;6.50;;;1.15;;
74614;SDS011;63121;51.458;-0.110;2022-11-15T04:25:55;3.80;;;0.75;;
74614;SDS011;63121;51.458;-0.110;2022-11-15T04:28:22;8.77;;;1.17;;
74614;SDS011;63121;51.458;-0.110;2022-11-15T04:30:48;13.38;;;2.25;;
74614;SDS011;63121;51.458;-0.110;2022-11-15T04:33:14;6.18;;;0.82;;
74614;SDS011;63121;51.458;-0.110;2022-11-15T04:35:40;3.08;;;0.85;;
74614;SDS011;63121;51.458;-0.110;2022-11-15T04:38:07;6.10;;;1.30;;
74614;SDS011;63121;51.458;-0.110;2022-11-15T04:40:34;6.95;;;1.25;;
74614;SDS011;63121;51.458;-0.110;2022-11-15T04:43:00;7.97;;;1.30;;
74614;SDS011;63121;51.458;-0.110;2022-11-15T04:45:25;8.63;;;1.40;;
74614;SDS011;63121;51.458;-0.110;2022-11-15T04:47:51;6.47;;;1.30;;
74614;SDS011;63121;51.458;-0.110;2022-11-15T04:50:16;6.68;;;1.20;;
74614;SDS011;63121;51.458;-0.110;2022-11-15T04:52:42;9.23;;;1.50;;
74614;SDS011;63121;51.458;-0.110;2022-11-15T04:57:40;9.70;;;1.73;;
74614;SDS011;63121;51.458;-0.110;2022-11-15T05:00:06;6.38;;;1.25;;
74614;SDS011;63121;51.458;-0.110;2022-11-15T05:02:33;6.25;;;1.08;;
74614;SDS011;63121;51.458;-0.110;2022-11-15T05:05:17;8.55;;;1.20;;
74614;SDS011;63121;51.458;-0.110;2022-11-15T05:07:42;8.38;;;1.00;;
74614;SDS011;63121;51.458;-0.110;2022-11-15T05:10:08;5.57;;;1.13;;
74614;SDS011;63121;51.458;-0.110;2022-11-15T05:12:34;4.85;;;1.00;;
74614;SDS011;63121;51.458;-0.110;2022-11-15T05:14:59;13.23;;;1.48;;
74614;SDS011;63121;51.458;-0.110;2022-11-15T05:17:25;6.30;;;1.10;;
74614;SDS011;63121;51.458;-0.110;2022-11-15T05:19:50;9.52;;;1.45;;
74614;SDS011;63121;51.458;-0.110;2022-11-15T05:22:17;6.85;;;1.20;;
74614;SDS011;63121;51.458;-0.110;2022-11-15T05:24:43;5.85;;;1.00;;
74614;SDS011;63121;51.458;-0.110;2022-11-15T05:27:08;9.55;;;1.20;;
74614;SDS011;63121;51.458;-0.110;2022-11-15T05:29:33;6.50;;;1.43;;
74614;SDS011;63121;51.458;-0.110;2022-11-15T05:31:59;7.57;;;1.40;;
74614;SDS011;63121;51.458;-0.110;2022-11-15T05:34:24;7.22;;;1.02;;
74614;SDS011;63121;51.458;-0.110;2022-11-15T05:36:50;7.13;;;1.35;;
74614;SDS011;63121;51.458;-0.110;2022-11-15T05:39:16;8.60;;;1.30;;
74614;SDS011;63121;51.458;-0.110;2022-11-15T05:41:42;6.28;;;1.20;;
74614;SDS011;63121;51.458;-0.110;2022-11-15T05:44:12;11.85;;;1.48;;
74614;SDS011;63121;51.458;-0.110;2022-11-15T05:46:41;10.50;;;1.30;;
74614;SDS011;63121;51.458;-0.110;2022-11-15T05:49:08;9.73;;;1.33;;
74614;SDS011;63121;51.458;-0.110;2022-11-15T05:51:37;8.95;;;1.60;;
74614;SDS011;63121;51.458;-0.110;2022-11-15T05:54:03;8.45;;;1.50;;
74614;SDS011;63121;51.458;-0.110;2022-11-15T05:56:29;6.68;;;1.05;;
74614;SDS011;63121;51.458;-0.110;2022-11-15T05:58:55;6.97;;;1.85;;
74614;SDS011;63121;51.458;-0.110;2022-11-15T06:01:22;9.65;;;1.75;;
74614;SDS011;63121;51.458;-0.110;2022-11-15T06:03:50;7.10;;;1.20;;
74614;SDS011;63121;51.458;-0.110;2022-11-15T06:06:15;7.35;;;1.40;;
74614;SDS011;63121;51.458;-0.110;2022-11-15T06:08:40;8.35;;;1.55;;
74614;SDS011;63121;51.458;-0.110;2022-11-15T06:11:06;6.60;;;1.17;;
74614;SDS011;63121;51.458;-0.110;2022-11-15T06:13:32;5.03;;;0.98;;
74614;SDS011;63121;51.458;-0.110;2022-11-15T06:15:58;10.30;;;1.65;;
74614;SDS011;63121;51.458;-0.110;2022-11-15T06:18:24;11.57;;;1.63;;
74614;SDS011;63121;51.458;-0.110;2022-11-15T06:20:49;9.80;;;1.60;;
74614;SDS011;63121;51.458;-0.110;2022-11-15T06:23:15;10.40;;;1.58;;
74614;SDS011;63121;51.458;-0.110;2022-11-15T06:25:40;6.55;;;1.20;;
74614;SDS011;63121;51.458;-0.110;2022-11-15T06:28:06;15.18;;;1.83;;
74614;SDS011;63121;51.458;-0.110;2022-11-15T06:30:31;5.65;;;1.20;;
74614;SDS011;63121;51.458;-0.110;2022-11-15T06:33:00;8.30;;;0.93;;
74614;SDS011;63121;51.458;-0.110;2022-11-15T06:35:27;7.85;;;1.40;;
74614;SDS011;63121;51.458;-0.110;2022-11-15T06:37:53;6.53;;;1.20;;
74614;SDS011;63121;51.458;-0.110;2022-11-15T06:40:19;9.45;;;1.20;;
74614;SDS011;63121;51.458;-0.110;2022-11-15T06:42:45;5.47;;;1.20;;
74614;SDS011;63121;51.458;-0.110;2022-11-15T06:45:10;6.90;;;1.03;;
74614;SDS011;63121;51.458;-0.110;2022-11-15T06:47:35;7.23;;;1.57;;
74614;SDS011;63121;51.458;-0.110;2022-11-15T06:50:08;11.82;;;1.35;;
74614;SDS011;63121;51.458;-0.110;2022-11-15T06:52:34;11.13;;;1.88;;
74614;SDS011;63121;51.458;-0.110;2022-11-15T06:54:59;9.87;;;1.40;;
74614;SDS011;63121;51.458;-0.110;2022-11-15T06:57:25;8.53;;;1.53;;
74614;SDS011;63121;51.458;-0.110;2022-11-15T06:59:50;10.87;;;1.30;;
74614;SDS011;63121;51.458;-0.110;2022-11-15T07:02:15;5.30;;;1.33;;
74614;SDS011;63121;51.458;-0.110;2022-11-15T07:04:41;6.93;;;1.08;;
74614;SDS011;63121;51.458;-0.110;2022-11-15T07:07:06;12.20;;;1.50;;
74614;SDS011;63121;51.458;-0.110;2022-11-15T07:09:32;4.80;;;2.10;;
74614;SDS011;63121;51.458;-0.110;2022-11-15T07:11:57;7.90;;;1.30;;
74614;SDS011;63121;51.458;-0.110;2022-11-15T07:14:22;8.40;;;1.50;;
74614;SDS011;63121;51.458;-0.110;2022-11-15T07:16:48;7.40;;;1.27;;
74614;SDS011;63121;51.458;-0.110;2022-11-15T07:19:13;6.20;;;1.17;;
74614;SDS011;63121;51.458;-0.110;2022-11-15T07:21:38;11.00;;;1.20;;
74614;SDS011;63121;51.458;-0.110;2022-11-15T07:24:04;13.55;;;1.63;;
74614;SDS011;63121;51.458;-0.110;2022-11-15T07:26:29;5.72;;;1.10;;
74614;SDS011;63121;51.458;-0.110;2022-11-15T07:28:55;10.10;;;1.33;;
74614;SDS011;63121;51.458;-0.110;2022-11-15T07:31:20;4.70;;;1.17;;
74614;SDS011;63121;51.458;-0.110;2022-11-15T07:33:46;5.40;;;1.10;;
74614;SDS011;63121;51.458;-0.110;2022-11-15T07:36:11;7.20;;;1.23;;
74614;SDS011;63121;51.458;-0.110;2022-11-15T07:38:36;9.90;;;1.20;;
74614;SDS011;63121;51.458;-0.110;2022-11-15T07:41:03;8.80;;;1.50;;
74614;SDS011;63121;51.458;-0.110;2022-11-15T07:43:29;3.53;;;0.95;;
74614;SDS011;63121;51.458;-0.110;2022-11-15T07:45:57;3.80;;;1.00;;
74614;SDS011;63121;51.458;-0.110;2022-11-15T07:48:23;8.00;;;1.50;;
74614;SDS011;63121;51.458;-0.110;2022-11-15T07:50:48;4.85;;;1.20;;
74614;SDS011;63121;51.458;-0.110;2022-11-15T07:53:14;3.00;;;0.90;;
74614;SDS011;63121;51.458;-0.110;2022-11-15T07:55:41;4.85;;;1.20;;
74614;SDS011;63121;51.458;-0.110;2022-11-15T07:58:08;5.20;;;1.10;;
74614;SDS011;63121;51.458;-0.110;2022-11-15T08:00:35;3.78;;;1.05;;
74614;SDS011;63121;51.458;-0.110;2022-11-15T08:03:05;5.72;;;0.90;;
74614;SDS011;63121;51.458;-0.110;2022-11-15T08:05:36;3.22;;;0.98;;
74614;SDS011;63121;51.458;-0.110;2022-11-15T08:08:02;6.15;;;1.00;;
74614;SDS011;63121;51.458;-0.110;2022-11-15T08:10:28;2.72;;;0.55;;
74614;SDS011;63121;51.458;-0.110;2022-11-15T08:13:04;2.60;;;0.85;;
74614;SDS011;63121;51.458;-0.110;2022-11-15T08:15:32;4.45;;;0.70;;
74614;SDS011;63121;51.458;-0.110;2022-11-15T08:18:00;5.03;;;1.23;;
74614;SDS011;63121;51.458;-0.110;2022-11-15T08:20:28;5.57;;;0.75;;
74614;SDS011;63121;51.458;-0.110;2022-11-15T08:22:55;3.17;;;0.90;;
74614;SDS011;63121;51.458;-0.110;2022-11-15T08:25:22;1.55;;;0.52;;
74614;SDS011;63121;51.458;-0.110;2022-11-15T08:27:51;3.10;;;0.93;;
74614;SDS011;63121;51.458;-0.110;2022-11-15T08:30:17;8.90;;;1.33;;
74614;SDS011;63121;51.458;-0.110;2022-11-15T08:32:43;4.60;;;0.90;;
74614;SDS011;63121;51.458;-0.110;2022-11-15T08:35:08;2.75;;;0.80;;
74614;SDS011;63121;51.458;-0.110;2022-11-15T08:37:34;4.10;;;0.80;;
74614;SDS011;63121;51.458;-0.110;2022-11-15T08:40:00;1.77;;;0.65;;
74614;SDS011;63121;51.458;-0.110;2022-11-15T08:42:26;3.40;;;0.93;;
74614;SDS011;63121;51.458;-0.110;2022-11-15T08:44:51;3.65;;;0.68;;
74614;SDS011;63121;51.458;-0.110;2022-11-15T08:47:16;2.55;;;0.60;;
74614;SDS011;63121;51.458;-0.110;2022-11-15T08:49:42;2.13;;;0.70;;
74614;SDS011;63121;51.458;-0.110;2022-11-15T08:52:07;1.50;;;0.70;;
74614;SDS011;63121;51.458;-0.110;2022-11-15T08:54:33;1.90;;;0.55;;
74614;SDS011;63121;51.458;-0.110;2022-11-15T08:56:58;1.53;;;0.60;;
74614;SDS011;63121;51.458;-0.110;2022-11-15T08:59:23;1.47;;;0.60;;
74614;SDS011;63121;51.458;-0.110;2022-11-15T09:01:49;2.78;;;0.80;;
74614;SDS011;63121;51.458;-0.110;2022-11-15T09:04:14;2.20;;;0.60;;
74614;SDS011;63121;51.458;-0.110;2022-11-15T09:06:40;1.45;;;0.40;;
74614;SDS011;63121;51.458;-0.110;2022-11-15T09:09:05;3.65;;;0.77;;
74614;SDS011;63121;51.458;-0.110;2022-11-15T09:11:31;4.40;;;0.80;;
74614;SDS011;63121;51.458;-0.110;2022-11-15T09:13:56;0.28;;;0.28;;
74614;SDS011;63121;51.458;-0.110;2022-11-15T09:16:22;1.03;;;0.47;;
74614;SDS011;63121;51.458;-0.110;2022-11-15T09:18:47;0.50;;;0.40;;
74614;SDS011;63121;51.458;-0.110;2022-11-15T09:21:13;1.83;;;0.32;;
74614;SDS011;63121;51.458;-0.110;2022-11-15T09:23:38;1.25;;;0.38;;
74614;SDS011;63121;51.458;-0.110;2022-11-15T09:26:04;1.50;;;0.60;;
74614;SDS011;63121;51.458;-0.110;2022-11-15T09:28:30;0.45;;;0.30;;
74614;SDS011;63121;51.458;-0.110;2022-11-15T09:30:57;1.13;;;0.40;;
74614;SDS011;63121;51.458;-0.110;2022-11-15T09:33:24;1.15;;;0.50;;
74614;SDS011;63121;51.458;-0.110;2022-11-15T09:35:50;2.65;;;0.60;;
74614;SDS011;63121;51.458;-0.110;2022-11-15T09:38:16;0.90;;;0.40;;
74614;SDS011;63121;51.458;-0.110;2022-11-15T09:40:41;0.52;;;0.40;;
74614;SDS011;63121;51.458;-0.110;2022-11-15T09:48:51;0.60;;;0.45;;
74614;SDS011;63121;51.458;-0.110;2022-11-15T09:51:31;2.67;;;0.60;;
74614;SDS011;63121;51.458;-0.110;2022-11-15T09:56:29;1.48;;;0.43;;
74614;SDS011;63121;51.458;-0.110;2022-11-15T10:01:39;1.10;;;0.38;;
74614;SDS011;63121;51.458;-0.110;2022-11-15T10:04:14;1.08;;;0.30;;
74614;SDS011;63121;51.458;-0.110;2022-11-15T10:06:46;3.53;;;0.70;;
74614;SDS011;63121;51.458;-0.110;2022-11-15T10:09:30;1.95;;;0.65;;
74614;SDS011;63121;51.458;-0.110;2022-11-15T10:12:06;1.67;;;0.50;;
74614;SDS011;63121;51.458;-0.110;2022-11-15T10:14:33;4.45;;;0.73;;
74614;SDS011;63121;51.458;-0.110;2022-11-15T10:22:24;2.85;;;0.80;;
74614;SDS011;63121;51.458;-0.110;2022-11-15T10:24:52;2.97;;;0.63;;
74614;SDS011;63121;51.458;-0.110;2022-11-15T10:27:35;3.25;;;0.73;;
74614;SDS011;63121;51.458;-0.110;2022-11-15T10:30:01;3.63;;;0.82;;
74614;SDS011;63121;51.458;-0.110;2022-11-15T10:32:31;5.55;;;0.90;;
74614;SDS011;63121;51.458;-0.110;2022-11-15T10:35:01;2.03;;;0.50;;
74614;SDS011;63121;51.458;-0.110;2022-11-15T10:37:42;2.63;;;0.60;;
74614;SDS011;63121;51.458;-0.110;2022-11-15T10:40:21;2.95;;;0.95;;
74614;SDS011;63121;51.458;-0.110;2022-11-15T10:42:48;4.13;;;0.90;;
74614;SDS011;63121;51.458;-0.110;2022-11-15T10:45:38;1.67;;;0.70;;
74614;SDS011;63121;51.458;-0.110;2022-11-15T10:50:42;4.55;;;0.90;;
74614;SDS011;63121;51.458;-0.110;2022-11-15T10:53:21;6.95;;;0.82;;
74614;SDS011;63121;51.458;-0.110;2022-11-15T10:56:04;3.72;;;0.80;;
74614;SDS011;63121;51.458;-0.110;2022-11-15T10:58:35;4.25;;;1.15;;
74614;SDS011;63121;51.458;-0.110;2022-11-15T11:01:14;5.03;;;1.00;;
74614;SDS011;63121;51.458;-0.110;2022-11-15T11:03:42;1.98;;;0.70;;
74614;SDS011;63121;51.458;-0.110;2022-11-15T11:06:16;2.25;;;0.70;;
74614;SDS011;63121;51.458;-0.110;2022-11-15T11:09:01;3.40;;;0.80;;
74614;SDS011;63121;51.458;-0.110;2022-11-15T11:11:48;5.30;;;0.88;;
74614;SDS011;63121;51.458;-0.110;2022-11-15T11:14:18;3.33;;;0.90;;
74614;SDS011;63121;51.458;-0.110;2022-11-15T11:16:48;1.35;;;0.70;;
74614;SDS011;63121;51.458;-0.110;2022-11-15T11:19:46;4.40;;;1.10;;
74614;SDS011;63121;51.458;-0.110;2022-11-15T11:35:13;4.15;;;0.65;;
74614;SDS011;63121;51.458;-0.110;2022-11-15T11:48:51;0.80;;;0.40;;
74614;SDS011;63121;51.458;-0.110;2022-11-15T11:51:38;4.32;;;0.80;;
74614;SDS011;63121;51.458;-0.110;2022-11-15T11:56:39;2.88;;;0.90;;
74614;SDS011;63121;51.458;-0.110;2022-11-15T12:02:18;2.35;;;0.60;;
74614;SDS011;63121;51.458;-0.110;2022-11-15T12:04:51;0.82;;;0.40;;
74614;SDS011;63121;51.458;-0.110;2022-11-15T12:07:26;2.00;;;0.57;;
74614;SDS011;63121;51.458;-0.110;2022-11-15T12:10:01;4.63;;;0.77;;
74614;SDS011;63121;51.458;-0.110;2022-11-15T12:12:38;2.33;;;0.50;;
74614;SDS011;63121;51.458;-0.110;2022-11-15T12:15:26;1.67;;;0.73;;
74614;SDS011;63121;51.458;-0.110;2022-11-15T12:17:52;4.32;;;0.60;;
74614;SDS011;63121;51.458;-0.110;2022-11-15T12:20:27;2.63;;;0.52;;
74614;SDS011;63121;51.458;-0.110;2022-11-15T12:22:57;1.20;;;0.40;;
74614;SDS011;63121;51.458;-0.110;2022-11-15T12:25:30;1.55;;;0.47;;
74614;SDS011;63121;51.458;-0.110;2022-11-15T12:36:11;2.70;;;0.47;;
74614;SDS011;63121;51.458;-0.110;2022-11-15T12:43:54;2.75;;;0.60;;
74614;SDS011;63121;51.458;-0.110;2022-11-15T12:46:22;2.40;;;0.60;;
74614;SDS011;63121;51.458;-0.110;2022-11-15T12:48:54;1.45;;;0.60;;
74614;SDS011;63121;51.458;-0.110;2022-11-15T12:51:21;3.35;;;0.80;;
74614;SDS011;63121;51.458;-0.110;2022-11-15T13:02:35;1.92;;;0.40;;
74614;SDS011;63121;51.458;-0.110;2022-11-15T13:17:39;3.20;;;0.80;;
74614;SDS011;63121;51.458;-0.110;2022-11-15T13:20:22;3.55;;;1.30;;
74614;SDS011;63121;51.458;-0.110;2022-11-15T13:33:31;5.53;;;0.90;;
74614;SDS011;63121;51.458;-0.110;2022-11-15T13:36:01;1.05;;;0.60;;
74614;SDS011;63121;51.458;-0.110;2022-11-15T13:38:33;3.25;;;0.75;;
74614;SDS011;63121;51.458;-0.110;2022-11-15T13:41:10;3.08;;;0.80;;
74614;SDS011;63121;51.458;-0.110;2022-11-15T13:43:47;1.20;;;0.50;;
74614;SDS011;63121;51.458;-0.110;2022-11-15T13:49:08;3.25;;;0.77;;
74614;SDS011;63121;51.458;-0.110;2022-11-15T13:57:35;2.63;;;0.60;;
74614;SDS011;63121;51.458;-0.110;2022-11-15T14:00:02;3.88;;;0.65;;
74614;SDS011;63121;51.458;-0.110;2022-11-15T14:02:31;1.50;;;0.70;;
74614;SDS011;63121;51.458;-0.110;2022-11-15T14:05:00;3.33;;;0.70;;
74614;SDS011;63121;51.458;-0.110;2022-11-15T14:07:36;6.72;;;1.10;;
74614;SDS011;63121;51.458;-0.110;2022-11-15T14:10:24;2.45;;;0.77;;
74614;SDS011;63121;51.458;-0.110;2022-11-15T14:12:53;3.60;;;0.80;;
74614;SDS011;63121;51.458;-0.110;2022-11-15T14:17:57;4.55;;;0.70;;
74614;SDS011;63121;51.458;-0.110;2022-11-15T14:23:01;3.08;;;0.90;;
74614;SDS011;63121;51.458;-0.110;2022-11-15T14:25:54;2.30;;;0.45;;
74614;SDS011;63121;51.458;-0.110;2022-11-15T14:30:49;4.10;;;0.80;;
74614;SDS011;63121;51.458;-0.110;2022-11-15T14:35:51;1.83;;;0.68;;
74614;SDS011;63121;51.458;-0.110;2022-11-15T14:38:17;7.07;;;1.00;;
74614;SDS011;63121;51.458;-0.110;2022-11-15T14:40:43;3.30;;;0.65;;
74614;SDS011;63121;51.458;-0.110;2022-11-15T14:43:09;4.18;;;1.00;;
74614;SDS011;63121;51.458;-0.110;2022-11-15T14:45:36;3.13;;;0.75;;
74614;SDS011;63121;51.458;-0.110;2022-11-15T14:48:02;3.30;;;0.65;;
74614;SDS011;63121;51.458;-0.110;2022-11-15T14:50:28;2.50;;;0.75;;
74614;SDS011;63121;51.458;-0.110;2022-11-15T14:52:53;4.82;;;0.90;;
74614;SDS011;63121;51.458;-0.110;2022-11-15T14:55:20;1.80;;;0.50;;
74614;SDS011;63121;51.458;-0.110;2022-11-15T14:57:48;4.35;;;1.10;;
74614;SDS011;63121;51.458;-0.110;2022-11-15T15:00:14;5.55;;;0.88;;
74614;SDS011;63121;51.458;-0.110;2022-11-15T15:02:41;2.42;;;0.70;;
74614;SDS011;63121;51.458;-0.110;2022-11-15T15:05:15;2.58;;;0.50;;
74614;SDS011;63121;51.458;-0.110;2022-11-15T15:07:46;2.10;;;0.60;;
74614;SDS011;63121;51.458;-0.110;2022-11-15T15:10:12;5.32;;;0.93;;
74614;SDS011;63121;51.458;-0.110;2022-11-15T15:12:39;4.85;;;1.05;;
74614;SDS011;63121;51.458;-0.110;2022-11-15T15:15:05;3.78;;;0.88;;
74614;SDS011;63121;51.458;-0.110;2022-11-15T15:17:36;2.17;;;0.60;;
74614;SDS011;63121;51.458;-0.110;2022-11-15T15:20:01;3.70;;;0.70;;
74614;SDS011;63121;51.458;-0.110;2022-11-15T15:22:27;2.90;;;0.90;;
74614;SDS011;63121;51.458;-0.110;2022-11-15T15:24:54;3.85;;;0.70;;
74614;SDS011;63121;51.458;-0.110;2022-11-15T15:27:19;4.07;;;0.80;;
74614;SDS011;63121;51.458;-0.110;2022-11-15T15:29:45;3.47;;;0.90;;
74614;SDS011;63121;51.458;-0.110;2022-11-15T15:32:10;1.93;;;0.50;;
74614;SDS011;63121;51.458;-0.110;2022-11-15T15:34:36;5.32;;;0.95;;
74614;SDS011;63121;51.458;-0.110;2022-11-15T15:39:32;4.47;;;1.00;;
74614;SDS011;63121;51.458;-0.110;2022-11-15T15:41:58;4.00;;;1.00;;
74614;SDS011;63121;51.458;-0.110;2022-11-15T15:44:23;5.23;;;0.90;;
74614;SDS011;63121;51.458;-0.110;2022-11-15T15:46:49;2.28;;;0.80;;
74614;SDS011;63121;51.458;-0.110;2022-11-15T15:49:14;2.22;;;0.70;;
74614;SDS011;63121;51.458;-0.110;2022-11-15T15:51:39;4.77;;;0.70;;
74614;SDS011;63121;51.458;-0.110;2022-11-15T15:54:05;1.00;;;0.53;;
74614;SDS011;63121;51.458;-0.110;2022-11-15T15:56:30;2.00;;;0.60;;
74614;SDS011;63121;51.458;-0.110;2022-11-15T15:58:55;5.30;;;0.80;;
74614;SDS011;63121;51.458;-0.110;2022-11-15T16:01:21;4.23;;;0.70;;
74614;SDS011;63121;51.458;-0.110;2022-11-15T16:03:46;1.92;;;0.60;;
74614;SDS011;63121;51.458;-0.110;2022-11-15T16:09:01;5.82;;;1.27;;
74614;SDS011;63121;51.458;-0.110;2022-11-15T16:11:27;2.72;;;0.80;;
74614;SDS011;63121;51.458;-0.110;2022-11-15T16:13:52;2.17;;;0.57;;
74614;SDS011;63121;51.458;-0.110;2022-11-15T16:16:18;1.77;;;0.60;;
74614;SDS011;63121;51.458;-0.110;2022-11-15T16:18:46;3.17;;;0.70;;
74614;SDS011;63121;51.458;-0.110;2022-11-15T16:21:11;2.77;;;0.60;;
74614;SDS011;63121;51.458;-0.110;2022-11-15T16:23:36;3.63;;;0.80;;
74614;SDS011;63121;51.458;-0.110;2022-11-15T16:26:02;3.55;;;0.60;;
74614;SDS011;63121;51.458;-0.110;2022-11-15T16:28:39;4.00;;;0.68;;
74614;SDS011;63121;51.458;-0.110;2022-11-15T16:31:07;4.90;;;0.90;;
74614;SDS011;63121;51.458;-0.110;2022-11-15T16:33:34;4.53;;;0.80;;
74614;SDS011;63121;51.458;-0.110;2022-11-15T16:36:01;4.03;;;0.85;;
74614;SDS011;63121;51.458;-0.110;2022-11-15T16:38:28;4.03;;;0.90;;
74614;SDS011;63121;51.458;-0.110;2022-11-15T16:40:53;4.20;;;0.80;;
74614;SDS011;63121;51.458;-0.110;2022-11-15T16:43:18;3.20;;;0.68;;
74614;SDS011;63121;51.458;-0.110;2022-11-15T16:45:44;2.27;;;0.60;;
74614;SDS011;63121;51.458;-0.110;2022-11-15T16:48:21;3.30;;;0.90;;
74614;SDS011;63121;51.458;-0.110;2022-11-15T16:50:56;3.40;;;0.57;;
74614;SDS011;63121;51.458;-0.110;2022-11-15T16:53:23;4.45;;;0.80;;
74614;SDS011;63121;51.458;-0.110;2022-11-15T16:58:14;4.67;;;0.70;;
74614;SDS011;63121;51.458;-0.110;2022-11-15T17:00:40;1.63;;;0.60;;
74614;SDS011;63121;51.458;-0.110;2022-11-15T17:03:06;4.65;;;1.02;;
74614;SDS011;63121;51.458;-0.110;2022-11-15T17:05:32;4.15;;;0.77;;
74614;SDS011;63121;51.458;-0.110;2022-11-15T17:07:57;3.45;;;0.77;;
74614;SDS011;63121;51.458;-0.110;2022-11-15T17:10:23;3.83;;;0.82;;
74614;SDS011;63121;51.458;-0.110;2022-11-15T17:12:50;2.30;;;0.70;;
74614;SDS011;63121;51.458;-0.110;2022-11-15T17:15:16;2.85;;;0.68;;
74614;SDS011;63121;51.458;-0.110;2022-11-15T17:17:43;5.82;;;0.90;;